Time;durP1;ratioP1;P1;durP2;ratioP2;P2;SDS_P1;SDS_P2;PMS_P1;PMS_P2;Temp;Humidity;BMP_temperature;BMP_pressure;BME280_temperature;BME280_humidity;BME280_pressure;Samples;Min_cycle;Max_cycle;Signal;HPM_P1;HPM_P2
2021/08/10 00:00:01;;;;;;;1.53;1.30;;;20.30;99.90;;;;;;4987290;28;20448;-80
2021/08/10 00:02:29;;;;;;;1.60;1.27;;;20.30;99.90;;;;;;4971173;28;20460;-81
2021/08/10 00:04:57;;;;;;;2.40;1.50;;;20.30;99.90;;;;;;4972066;28;20509;-80
2021/08/10 00:07:27;;;;;;;1.47;1.37;;;20.30;99.90;;;;;;4971729;28;20514;-80
2021/08/10 00:09:55;;;;;;;1.77;1.67;;;20.30;99.90;;;;;;4970705;28;20447;-80
2021/08/10 00:12:23;;;;;;;1.90;1.40;;;20.20;99.90;;;;;;4969950;28;21069;-81
2021/08/10 00:14:51;;;;;;;2.43;1.33;;;20.10;99.90;;;;;;4971644;28;20452;-80
2021/08/10 00:17:19;;;;;;;1.37;1.27;;;20.20;99.90;;;;;;4971605;28;20436;-80
2021/08/10 00:19:48;;;;;;;1.23;1.13;;;20.20;99.90;;;;;;4971411;28;20446;-80
2021/08/10 00:22:16;;;;;;;6.40;1.63;;;20.30;99.90;;;;;;4971128;28;20476;-81
2021/08/10 00:24:45;;;;;;;1.60;1.50;;;20.30;99.90;;;;;;4971998;28;20463;-80
2021/08/10 00:27:15;;;;;;;2.60;1.40;;;20.20;99.90;;;;;;4971933;28;20435;-80
2021/08/10 00:29:44;;;;;;;1.30;1.20;;;20.10;99.90;;;;;;4971218;28;20450;-80
2021/08/10 00:32:12;;;;;;;1.27;1.17;;;20.10;99.90;;;;;;4971158;28;20904;-80
2021/08/10 00:34:40;;;;;;;1.40;1.30;;;20.10;99.90;;;;;;4971819;28;20804;-80
2021/08/10 00:37:09;;;;;;;2.57;1.63;;;20.00;99.90;;;;;;4970723;28;20451;-80
2021/08/10 00:39:38;;;;;;;3.73;1.50;;;20.00;99.90;;;;;;4970931;28;20462;-80
2021/08/10 00:42:07;;;;;;;4.90;1.40;;;20.00;99.90;;;;;;4986868;28;20980;-81
2021/08/10 00:44:35;;;;;;;1.43;1.33;;;19.90;99.90;;;;;;4971436;28;20486;-79
2021/08/10 00:47:04;;;;;;;2.80;1.20;;;19.90;99.90;;;;;;4970792;28;20498;-79
2021/08/10 00:49:33;;;;;;;1.67;1.50;;;19.80;99.90;;;;;;4970872;28;20522;-80
2021/08/10 00:52:01;;;;;;;2.10;1.30;;;19.80;99.90;;;;;;4985641;28;20468;-80
2021/08/10 00:54:29;;;;;;;2.40;1.43;;;19.80;99.90;;;;;;4970873;28;20502;-80
2021/08/10 00:56:57;;;;;;;3.10;1.60;;;19.70;99.90;;;;;;4984622;28;20534;-80
2021/08/10 00:59:27;;;;;;;1.57;1.23;;;19.70;99.90;;;;;;4970928;28;20963;-80
2021/08/10 01:01:55;;;;;;;1.30;1.20;;;19.70;99.90;;;;;;4970021;28;20542;-81
2021/08/10 01:04:24;;;;;;;2.03;1.83;;;19.70;99.90;;;;;;4971351;28;20824;-80
2021/08/10 01:07:06;;;;;;;4.10;1.37;;;19.70;99.90;;;;;;4971411;28;20447;-80
2021/08/10 01:09:42;;;;;;;1.37;1.27;;;19.70;99.90;;;;;;4970015;28;20526;-80
2021/08/10 01:12:14;;;;;;;1.60;1.50;;;19.60;99.90;;;;;;4969840;28;20481;-80
2021/08/10 01:14:49;;;;;;;1.40;1.30;;;19.60;99.90;;;;;;4985124;28;20563;-79
2021/08/10 01:17:22;;;;;;;2.13;1.63;;;19.60;99.90;;;;;;4970758;28;20451;-80
2021/08/10 01:20:32;;;;;;;2.33;1.50;;;19.60;99.90;;;;;;4970833;28;20995;-80
2021/08/10 01:23:04;;;;;;;1.83;1.40;;;19.50;99.90;;;;;;4975340;28;20801;-80
2021/08/10 01:25:44;;;;;;;1.43;1.20;;;19.50;99.90;;;;;;4973752;28;21002;-80
2021/08/10 01:28:28;;;;;;;1.30;1.20;;;19.40;99.90;;;;;;4974902;28;20504;-79
2021/08/10 01:31:16;;;;;;;4.60;1.50;;;19.40;99.90;;;;;;4973493;28;20450;-80
2021/08/10 01:33:47;;;;;;;2.30;1.13;;;19.40;99.90;;;;;;4974674;28;20497;-80
2021/08/10 01:36:19;;;;;;;4.10;1.50;;;19.40;99.90;;;;;;4974063;28;20856;-80
2021/08/10 01:38:50;;;;;;;2.00;1.50;;;19.40;99.90;;;;;;4973745;28;20454;-80
2021/08/10 01:41:20;;;;;;;1.73;1.30;;;19.40;99.90;;;;;;4989353;28;20898;-80
2021/08/10 01:43:50;;;;;;;2.03;1.43;;;19.40;99.90;;;;;;4973957;28;20454;-80
2021/08/10 01:46:22;;;;;;;1.80;1.47;;;19.40;99.90;;;;;;4973947;28;20998;-80
2021/08/10 01:48:51;;;;;;;3.00;1.40;;;19.40;99.90;;;;;;4973724;28;20482;-80
2021/08/10 01:51:24;;;;;;;1.40;1.30;;;19.30;99.90;;;;;;4974212;28;20471;-80
2021/08/10 01:53:53;;;;;;;1.60;1.50;;;19.30;99.90;;;;;;4988580;28;20518;-80
2021/08/10 01:56:22;;;;;;;2.07;1.87;;;19.30;99.90;;;;;;4973995;28;20458;-80
2021/08/10 01:58:51;;;;;;;2.23;1.50;;;19.20;99.90;;;;;;4973086;28;20447;-80
2021/08/10 02:01:22;;;;;;;3.00;2.00;;;19.20;99.90;;;;;;4974132;28;20986;-80
2021/08/10 02:03:51;;;;;;;1.90;1.40;;;19.20;99.90;;;;;;4973036;28;20494;-80
2021/08/10 02:06:20;;;;;;;1.30;1.20;;;19.20;99.90;;;;;;4973881;28;20470;-80
2021/08/10 02:08:49;;;;;;;1.93;1.30;;;19.20;99.90;;;;;;4972337;28;20447;-78
2021/08/10 02:11:18;;;;;;;1.93;1.60;;;19.20;99.90;;;;;;4971993;28;20773;-80
2021/08/10 02:13:48;;;;;;;2.50;1.57;;;19.20;99.90;;;;;;4972619;28;20445;-81
2021/08/10 02:16:18;;;;;;;1.77;1.67;;;19.20;99.90;;;;;;4973778;28;20502;-79
2021/08/10 02:18:48;;;;;;;8.10;2.07;;;19.10;99.90;;;;;;4972658;28;20515;-80
2021/08/10 02:21:24;;;;;;;2.03;1.67;;;19.10;99.90;;;;;;4973230;28;20524;-80
2021/08/10 02:23:59;;;;;;;2.17;2.00;;;19.10;99.90;;;;;;4972436;28;20445;-80
2021/08/10 02:26:28;;;;;;;1.70;1.40;;;19.10;99.90;;;;;;4973653;28;20478;-80
2021/08/10 02:28:57;;;;;;;1.43;1.33;;;19.10;99.90;;;;;;4987064;28;20985;-79
2021/08/10 02:31:27;;;;;;;1.50;1.20;;;19.10;99.90;;;;;;4973130;28;20617;-80
2021/08/10 02:33:58;;;;;;;2.93;1.47;;;19.00;99.90;;;;;;4972055;28;20506;-80
2021/08/10 02:36:30;;;;;;;1.80;1.20;;;19.00;99.90;;;;;;4973702;28;20509;-80
2021/08/10 02:39:05;;;;;;;1.47;1.37;;;19.00;99.90;;;;;;4983402;28;20514;-79
2021/08/10 02:41:35;;;;;;;2.10;1.40;;;18.90;99.90;;;;;;4953636;28;20910;-80
2021/08/10 02:44:04;;;;;;;2.10;1.40;;;18.90;99.90;;;;;;4953308;29;20451;-80
2021/08/10 02:46:32;;;;;;;1.53;1.43;;;18.90;99.90;;;;;;4953260;29;20570;-80
2021/08/10 02:49:02;;;;;;;2.10;1.80;;;18.90;99.90;;;;;;4951808;29;20801;-80
2021/08/10 02:51:30;;;;;;;3.87;2.90;;;18.80;99.90;;;;;;4968374;28;20471;-80
2021/08/10 02:53:58;;;;;;;3.87;2.73;;;18.80;99.90;;;;;;4987299;28;20467;-80
2021/08/10 02:56:30;;;;;;;5.73;2.20;;;18.80;99.90;;;;;;4972649;28;21000;-80
2021/08/10 02:59:03;;;;;;;1.53;1.30;;;18.80;99.90;;;;;;4970822;28;20596;-80
2021/08/10 03:01:35;;;;;;;3.90;1.60;;;18.80;99.90;;;;;;4987741;28;20877;-80
2021/08/10 03:04:05;;;;;;;1.93;1.83;;;18.80;99.90;;;;;;4972612;28;20791;-80
2021/08/10 03:06:34;;;;;;;1.93;1.40;;;18.80;99.90;;;;;;4972395;28;20482;-80
2021/08/10 03:09:03;;;;;;;1.80;1.53;;;18.80;99.90;;;;;;4987065;28;20870;-81
2021/08/10 03:11:35;;;;;;;3.23;1.83;;;18.70;99.90;;;;;;4970775;28;20471;-79
2021/08/10 03:14:05;;;;;;;1.93;1.53;;;18.70;99.90;;;;;;4972636;28;20452;-80
2021/08/10 03:16:34;;;;;;;2.70;1.50;;;18.70;99.90;;;;;;4971930;28;20430;-80
2021/08/10 03:19:05;;;;;;;1.80;1.70;;;18.70;99.90;;;;;;4987522;28;20466;-80
2021/08/10 03:21:34;;;;;;;1.70;1.60;;;18.70;99.90;;;;;;4972159;28;20477;-80
2021/08/10 03:24:06;;;;;;;1.33;1.10;;;18.60;99.90;;;;;;4972978;28;20512;-80
2021/08/10 03:26:36;;;;;;;3.23;1.70;;;18.60;99.90;;;;;;4971251;28;20477;-80
2021/08/10 03:29:05;;;;;;;2.73;1.40;;;18.60;99.90;;;;;;4987762;28;20839;-80
2021/08/10 03:31:37;;;;;;;2.27;2.07;;;18.60;99.90;;;;;;4987202;28;20498;-79
2021/08/10 03:34:07;;;;;;;1.50;1.40;;;18.60;99.90;;;;;;4972370;28;20461;-79
2021/08/10 03:36:35;;;;;;;1.70;1.60;;;18.60;99.90;;;;;;4986039;28;20443;-80
2021/08/10 03:39:04;;;;;;;1.57;1.47;;;18.60;99.90;;;;;;4972128;28;20450;-79
2021/08/10 03:41:32;;;;;;;3.13;1.50;;;18.50;99.90;;;;;;4971034;28;20526;-80
2021/08/10 03:44:00;;;;;;;1.50;1.30;;;18.50;99.90;;;;;;4971469;28;20446;-80
2021/08/10 03:46:30;;;;;;;3.37;1.60;;;18.50;99.90;;;;;;4970618;28;20467;-80
2021/08/10 03:48:59;;;;;;;2.93;1.43;;;18.40;99.90;;;;;;4971798;28;20479;-80
2021/08/10 03:51:30;;;;;;;1.87;1.40;;;18.50;99.90;;;;;;4970893;28;20463;-80
2021/08/10 03:53:59;;;;;;;1.77;1.10;;;18.50;99.90;;;;;;4986853;28;20480;-79
2021/08/10 03:56:28;;;;;;;4.93;3.93;;;18.40;99.90;;;;;;4970888;28;20513;-81
2021/08/10 03:58:57;;;;;;;2.30;1.63;;;18.40;99.90;;;;;;4971377;28;20450;-79
2021/08/10 04:01:26;;;;;;;2.17;1.93;;;18.30;99.90;;;;;;4971657;28;20474;-80
2021/08/10 04:03:57;;;;;;;2.83;1.60;;;18.30;99.90;;;;;;4971953;28;20465;-80
2021/08/10 04:06:35;;;;;;;1.30;1.20;;;18.30;99.90;;;;;;5150824;27;20643;-80
2021/08/10 04:09:03;;;;;;;2.37;1.40;;;18.30;99.90;;;;;;5150807;27;20438;-80
2021/08/10 04:11:32;;;;;;;3.50;1.47;;;18.30;99.90;;;;;;5149293;27;20499;-80
2021/08/10 04:14:00;;;;;;;1.53;1.40;;;18.30;99.90;;;;;;5150207;27;20473;-80
2021/08/10 04:16:29;;;;;;;1.57;1.37;;;18.00;99.90;;;;;;5150821;27;20453;-81
2021/08/10 04:18:59;;;;;;;2.03;1.70;;;18.00;99.90;;;;;;5147316;27;20447;-80
2021/08/10 04:21:27;;;;;;;2.23;1.70;;;17.90;1.00;;;;;;5129755;28;20500;-80
2021/08/10 04:23:59;;;;;;;2.20;2.00;;;17.90;1.00;;;;;;5130420;28;20469;-80
2021/08/10 04:26:27;;;;;;;1.87;1.50;;;18.10;1.00;;;;;;5130451;28;20490;-80
2021/08/10 04:28:55;;;;;;;2.17;1.63;;;18.20;99.90;;;;;;5128466;28;20447;-81
2021/08/10 04:31:23;;;;;;;2.20;2.00;;;18.30;99.90;;;;;;5130506;28;20536;-80
2021/08/10 04:33:51;;;;;;;1.93;1.70;;;18.40;99.90;;;;;;5130214;28;20965;-81
2021/08/10 04:36:19;;;;;;;2.17;1.97;;;18.40;99.90;;;;;;5137988;27;20439;-80
2021/08/10 04:38:48;;;;;;;2.63;1.67;;;18.40;1.00;;;;;;5150431;27;20577;-79
2021/08/10 04:41:17;;;;;;;1.97;1.70;;;18.40;1.00;;;;;;5150960;27;20492;-81
2021/08/10 04:43:45;;;;;;;1.80;1.70;;;18.40;1.00;;;;;;5150760;27;21020;-80
2021/08/10 04:46:13;;;;;;;2.00;1.80;;;18.40;99.90;;;;;;5149872;27;20520;-80
2021/08/10 04:48:42;;;;;;;2.60;1.70;;;18.40;99.90;;;;;;5150307;27;20454;-81
2021/08/10 04:51:10;;;;;;;2.33;1.50;;;18.50;99.90;;;;;;5151037;27;20451;-80
2021/08/10 04:53:38;;;;;;;1.60;1.50;;;18.50;1.00;;;;;;5150871;27;20454;-81
2021/08/10 04:56:06;;;;;;;2.47;2.27;;;18.50;1.00;;;;;;5149696;27;20818;-80
2021/08/10 04:58:36;;;;;;;1.80;1.57;;;18.50;1.00;;;;;;5150096;27;20940;-80
2021/08/10 05:01:04;;;;;;;1.77;1.67;;;18.50;1.00;;;;;;5149062;27;20454;-80
2021/08/10 05:03:32;;;;;;;2.33;1.70;;;18.50;1.00;;;;;;5146993;27;21056;-80
2021/08/10 05:06:00;;;;;;;3.43;1.80;;;18.40;1.00;;;;;;5140443;27;20489;-80
2021/08/10 05:08:29;;;;;;;2.53;1.93;;;18.40;1.00;;;;;;5148266;27;20439;-80
2021/08/10 05:10:59;;;;;;;1.97;1.70;;;18.50;1.00;;;;;;5136486;27;20460;-80
2021/08/10 05:13:27;;;;;;;4.90;1.73;;;18.60;1.00;;;;;;5129144;28;20984;-80
2021/08/10 05:15:56;;;;;;;2.13;1.90;;;18.50;1.00;;;;;;5128213;28;20498;-80
2021/08/10 05:18:24;;;;;;;2.43;1.73;;;18.60;1.00;;;;;;5114478;28;20429;-80
2021/08/10 05:20:52;;;;;;;1.80;1.70;;;18.60;1.00;;;;;;5116197;28;20455;-80
2021/08/10 05:23:21;;;;;;;2.00;1.80;;;18.60;1.00;;;;;;5113815;28;20509;-80
2021/08/10 05:25:49;;;;;;;3.30;1.73;;;18.60;1.00;;;;;;5116948;28;20467;-80
2021/08/10 05:28:17;;;;;;;2.30;2.20;;;18.70;1.00;;;;;;5115911;27;20516;-80
2021/08/10 05:30:45;;;;;;;2.10;1.70;;;18.70;1.00;;;;;;5116073;28;20502;-79
2021/08/10 05:33:15;;;;;;;1.90;1.80;;;18.70;99.90;;;;;;5115296;28;20432;-80
2021/08/10 05:35:44;;;;;;;1.70;1.60;;;18.80;99.90;;;;;;5115969;28;20444;-80
2021/08/10 05:38:12;;;;;;;1.80;1.50;;;18.90;99.90;;;;;;5115154;28;20482;-81
2021/08/10 05:40:40;;;;;;;1.90;1.73;;;18.90;1.00;;;;;;5115559;28;20447;-80
2021/08/10 05:43:08;;;;;;;5.70;2.97;;;18.90;1.00;;;;;;5115034;28;20459;-80
2021/08/10 05:45:37;;;;;;;2.33;2.07;;;18.90;1.00;;;;;;5133114;27;20505;-81
2021/08/10 05:48:06;;;;;;;2.60;1.90;;;19.00;1.00;;;;;;5135854;27;20436;-80
2021/08/10 05:50:35;;;;;;;5.23;2.27;;;18.90;1.00;;;;;;5135546;27;20860;-80
2021/08/10 05:53:03;;;;;;;6.83;3.20;;;18.80;99.90;;;;;;5135497;27;20643;-80
2021/08/10 05:55:31;;;;;;;3.23;2.07;;;18.80;99.90;;;;;;5136084;27;20482;-81
2021/08/10 05:58:00;;;;;;;3.47;2.10;;;18.90;99.90;;;;;;5134937;27;20444;-81
2021/08/10 06:00:28;;;;;;;10.67;2.20;;;19.00;99.90;;;;;;5135529;27;21008;-81
2021/08/10 06:02:56;;;;;;;5.23;2.30;;;19.10;99.90;;;;;;5132874;27;20559;-80
2021/08/10 06:05:25;;;;;;;3.30;2.03;;;19.00;99.90;;;;;;5135838;27;20479;-80
2021/08/10 06:07:55;;;;;;;5.27;2.20;;;19.10;99.90;;;;;;5136159;27;20432;-79
2021/08/10 06:10:23;;;;;;;6.23;2.07;;;19.10;99.90;;;;;;5135012;27;20501;-81
2021/08/10 06:12:51;;;;;;;3.03;2.57;;;19.10;99.90;;;;;;5133795;27;20455;-80
2021/08/10 06:15:20;;;;;;;3.97;1.80;;;19.20;99.90;;;;;;5135879;27;20439;-81
2021/08/10 06:17:48;;;;;;;5.57;2.03;;;19.20;99.90;;;;;;5134663;27;20453;-81
2021/08/10 06:20:16;;;;;;;2.10;1.60;;;19.20;99.90;;;;;;5135188;27;20986;-80
2021/08/10 06:22:44;;;;;;;2.20;1.70;;;19.20;99.90;;;;;;5135988;27;20459;-79
2021/08/10 06:25:14;;;;;;;5.20;3.27;;;19.20;99.90;;;;;;5133833;27;20543;-80
2021/08/10 06:27:42;;;;;;;2.90;1.70;;;19.20;99.90;;;;;;5133593;27;20474;-80
2021/08/10 06:30:13;;;;;;;2.20;1.80;;;19.30;99.90;;;;;;5135178;27;20428;-80
2021/08/10 06:32:41;;;;;;;2.57;1.80;;;19.40;99.90;;;;;;5135645;27;20448;-80
2021/08/10 06:35:10;;;;;;;4.47;2.87;;;19.40;99.90;;;;;;5130173;27;20453;-80
2021/08/10 06:37:38;;;;;;;2.23;1.80;;;19.40;99.90;;;;;;5132285;27;20798;-80
2021/08/10 06:40:07;;;;;;;2.20;1.47;;;19.50;99.90;;;;;;5133685;27;20452;-80
2021/08/10 06:42:37;;;;;;;2.73;1.80;;;19.50;99.90;;;;;;5135424;27;20504;-81
2021/08/10 06:45:05;;;;;;;5.27;2.00;;;19.60;99.90;;;;;;5135299;27;20976;-80
2021/08/10 06:47:34;;;;;;;2.03;1.67;;;19.60;99.90;;;;;;5135659;27;20472;-80
2021/08/10 06:50:02;;;;;;;2.40;1.97;;;19.70;99.90;;;;;;5134672;27;20447;-81
2021/08/10 06:52:32;;;;;;;3.63;2.27;;;19.70;99.90;;;;;;5134570;27;20467;-81
2021/08/10 06:55:01;;;;;;;4.60;2.87;;;19.70;99.90;;;;;;5134515;27;20474;-80
2021/08/10 06:57:29;;;;;;;5.73;1.80;;;19.80;99.90;;;;;;5135966;27;20432;-80
2021/08/10 06:59:58;;;;;;;3.23;2.13;;;20.00;99.90;;;;;;5135029;27;20448;-80
2021/08/10 07:02:26;;;;;;;4.00;2.07;;;20.10;99.90;;;;;;5135781;27;20501;-80
2021/08/10 07:04:55;;;;;;;5.73;1.53;;;20.30;99.90;;;;;;5134572;27;20447;-80
2021/08/10 07:07:23;;;;;;;6.80;1.60;;;20.50;99.90;;;;;;5135157;27;20860;-80
2021/08/10 07:09:52;;;;;;;7.67;1.70;;;20.60;99.90;;;;;;5132867;27;20764;-81
2021/08/10 07:12:20;;;;;;;2.40;1.50;;;20.70;99.90;;;;;;5133961;27;20459;-80
2021/08/10 07:14:49;;;;;;;3.63;1.40;;;20.80;99.90;;;;;;5134960;27;20448;-81
2021/08/10 07:17:18;;;;;;;2.27;1.30;;;20.80;99.90;;;;;;5135604;27;20438;-80
2021/08/10 07:19:46;;;;;;;3.03;1.33;;;20.80;99.90;;;;;;5133310;27;20432;-81
2021/08/10 07:22:15;;;;;;;3.30;1.40;;;20.90;99.90;;;;;;5135669;27;20478;-80
2021/08/10 07:25:01;;;;;;;1.50;1.40;;;21.00;99.90;;;;;;5133216;27;20444;-81
2021/08/10 07:27:29;;;;;;;1.30;1.20;;;21.00;99.90;;;;;;5132842;27;20882;-80
2021/08/10 07:29:58;;;;;;;3.00;2.13;;;21.00;99.90;;;;;;5133994;27;21011;-80
2021/08/10 07:32:28;;;;;;;1.67;1.30;;;21.00;99.90;;;;;;5135876;27;20456;-81
2021/08/10 07:34:58;;;;;;;2.07;1.53;;;21.00;99.90;;;;;;5130862;27;20548;-81
2021/08/10 07:37:26;;;;;;;2.50;1.47;;;21.00;99.90;;;;;;5114898;28;20961;-80
2021/08/10 07:39:54;;;;;;;2.87;1.40;;;21.00;99.90;;;;;;5111681;28;20438;-80
2021/08/10 07:42:23;;;;;;;1.60;1.47;;;21.00;99.90;;;;;;5115065;28;20465;-81
2021/08/10 07:44:51;;;;;;;4.77;1.90;;;21.00;99.90;;;;;;5114375;27;20991;-80
2021/08/10 07:47:19;;;;;;;1.63;1.33;;;21.00;99.90;;;;;;5113295;28;20473;-80
2021/08/10 07:49:48;;;;;;;2.63;1.87;;;20.90;99.90;;;;;;5113308;28;20444;-81
2021/08/10 07:52:17;;;;;;;1.53;1.43;;;21.00;99.90;;;;;;5113244;28;20467;-80
2021/08/10 07:54:45;;;;;;;1.10;1.00;;;21.00;99.90;;;;;;5113538;28;20953;-80
2021/08/10 07:57:13;;;;;;;1.50;1.33;;;21.10;99.90;;;;;;5115505;28;20440;-80
2021/08/10 07:59:41;;;;;;;1.30;1.20;;;21.10;99.90;;;;;;5115374;28;20501;-80
2021/08/10 08:02:09;;;;;;;1.20;1.10;;;21.20;99.90;;;;;;5135278;27;20464;-81
2021/08/10 08:04:37;;;;;;;1.77;1.00;;;21.30;99.90;;;;;;5135044;28;20827;-81
2021/08/10 08:07:07;;;;;;;1.83;1.50;;;21.40;99.90;;;;;;5133784;28;20517;-81
2021/08/10 08:09:35;;;;;;;1.20;1.07;;;21.40;99.90;;;;;;5134196;28;20439;-81
2021/08/10 08:12:04;;;;;;;2.47;1.30;;;21.40;99.90;;;;;;5121550;27;20995;-80
2021/08/10 08:14:32;;;;;;;4.10;1.00;;;21.30;99.90;;;;;;5135448;27;20523;-81
2021/08/10 08:17:00;;;;;;;1.77;1.13;;;21.40;99.90;;;;;;5131354;28;20470;-80
2021/08/10 08:19:29;;;;;;;1.90;1.10;;;21.40;99.90;;;;;;5115069;28;20445;-80
2021/08/10 08:21:57;;;;;;;2.50;1.50;;;21.40;99.90;;;;;;5115022;28;20572;-81
2021/08/10 08:24:27;;;;;;;1.43;1.00;;;21.40;99.90;;;;;;5114936;28;20566;-80
2021/08/10 08:26:56;;;;;;;3.40;1.40;;;21.50;99.90;;;;;;5113404;28;20500;-81
2021/08/10 08:29:24;;;;;;;1.30;1.20;;;21.50;99.90;;;;;;5114482;28;20835;-80
2021/08/10 08:31:52;;;;;;;2.70;1.20;;;21.50;99.90;;;;;;5114741;28;20510;-81
2021/08/10 08:34:25;;;;;;;1.87;1.40;;;21.50;99.90;;;;;;5120984;28;20454;-81
2021/08/10 08:36:53;;;;;;;2.37;1.40;;;21.50;99.90;;;;;;5113466;28;20441;-81
2021/08/10 08:39:21;;;;;;;2.27;1.30;;;21.40;99.90;;;;;;5114776;28;20550;-80
2021/08/10 08:41:51;;;;;;;1.10;1.00;;;21.50;99.90;;;;;;5114936;28;20544;-81
2021/08/10 08:44:20;;;;;;;1.83;1.10;;;21.50;99.90;;;;;;5113201;28;20482;-80
2021/08/10 08:46:49;;;;;;;1.83;1.13;;;21.60;99.90;;;;;;5112549;28;20471;-81
2021/08/10 08:49:22;;;;;;;1.90;1.30;;;21.70;99.90;;;;;;5115391;28;20876;-81
2021/08/10 08:51:51;;;;;;;1.27;1.17;;;21.80;99.90;;;;;;5115998;28;20477;-81
2021/08/10 08:54:25;;;;;;;1.77;1.03;;;21.80;99.90;;;;;;5119492;28;20748;-80
2021/08/10 08:56:54;;;;;;;1.73;1.10;;;21.80;99.90;;;;;;5117700;28;20454;-81
2021/08/10 08:59:23;;;;;;;1.27;1.00;;;21.90;99.90;;;;;;5116732;28;20536;-81
2021/08/10 09:01:52;;;;;;;1.20;1.00;;;21.90;99.90;;;;;;5117753;28;20539;-81
2021/08/10 09:04:21;;;;;;;2.80;1.13;;;22.00;99.90;;;;;;5118232;28;20444;-81
2021/08/10 09:06:49;;;;;;;2.27;1.00;;;22.00;99.90;;;;;;5111553;28;20437;-80
2021/08/10 09:09:24;;;;;;;2.50;1.20;;;22.00;99.90;;;;;;5116285;28;20805;-81
2021/08/10 09:11:55;;;;;;;1.40;1.10;;;22.00;99.90;;;;;;5117321;28;20459;-81
2021/08/10 09:14:25;;;;;;;0.97;0.97;;;22.10;99.90;;;;;;5119963;28;20433;-80
2021/08/10 09:17:08;;;;;;;2.57;1.03;;;22.10;99.90;;;;;;5116286;28;20454;-80
2021/08/10 09:19:47;;;;;;;2.13;1.20;;;22.20;99.90;;;;;;5119502;28;20459;-80
2021/08/10 09:22:21;;;;;;;2.33;1.17;;;22.30;99.90;;;;;;5117999;28;20460;-81
2021/08/10 09:24:53;;;;;;;1.33;1.10;;;22.20;99.90;;;;;;5117426;28;20456;-80
2021/08/10 09:27:29;;;;;;;2.57;1.60;;;22.20;99.90;;;;;;5117334;28;20539;-80
2021/08/10 09:29:58;;;;;;;1.70;1.17;;;22.20;99.90;;;;;;5116503;28;20442;-80
2021/08/10 09:32:26;;;;;;;2.20;1.13;;;22.30;99.90;;;;;;5118776;28;20456;-79
2021/08/10 09:35:09;;;;;;;1.23;1.13;;;22.30;99.90;;;;;;5117517;28;20452;-81
2021/08/10 09:37:38;;;;;;;2.17;1.20;;;22.50;99.90;;;;;;5117722;28;20447;-81
2021/08/10 09:40:29;;;;;;;1.40;1.10;;;22.60;99.90;;;;;;5117748;28;20444;-81
2021/08/10 09:43:24;;;;;;;1.20;0.90;;;22.70;99.90;;;;;;5119385;28;20475;-82
2021/08/10 09:46:06;;;;;;;1.30;1.00;;;22.70;99.90;;;;;;5118438;28;20472;-80
2021/08/10 09:48:35;;;;;;;1.47;1.07;;;22.70;99.90;;;;;;5118962;28;20513;-81
2021/08/10 09:51:12;;;;;;;1.20;1.10;;;22.70;99.90;;;;;;5115511;28;20447;-79
2021/08/10 09:53:41;;;;;;;1.10;1.00;;;22.70;99.90;;;;;;5118749;28;20502;-80
2021/08/10 09:56:10;;;;;;;1.20;1.10;;;22.70;99.90;;;;;;5117662;28;20494;-81
2021/08/10 09:58:59;;;;;;;1.77;1.20;;;22.70;99.90;;;;;;5118059;28;20452;-80
2021/08/10 10:01:32;;;;;;;1.70;1.10;;;22.80;99.90;;;;;;5118427;28;20464;-80
2021/08/10 10:04:19;;;;;;;2.13;1.30;;;22.80;99.90;;;;;;5117499;28;20440;-81
2021/08/10 10:06:49;;;;;;;1.23;1.13;;;22.90;99.90;;;;;;5118708;28;20509;-80
2021/08/10 10:09:18;;;;;;;1.43;1.10;;;23.00;99.90;;;;;;5116791;28;20481;-80
2021/08/10 10:11:48;;;;;;;3.77;1.40;;;23.00;99.90;;;;;;5116531;28;20983;-81
2021/08/10 10:14:22;;;;;;;2.80;1.30;;;23.10;99.90;;;;;;5118196;28;20433;-81
2021/08/10 10:16:52;;;;;;;1.20;1.10;;;23.10;99.90;;;;;;5118651;28;20459;-79
2021/08/10 10:19:22;;;;;;;1.40;1.30;;;23.20;99.90;;;;;;5115262;28;20434;-80
2021/08/10 10:21:52;;;;;;;2.10;1.13;;;23.20;99.90;;;;;;5118698;28;20464;-80
2021/08/10 10:24:21;;;;;;;1.83;1.30;;;23.20;99.90;;;;;;5117550;28;20449;-81
2021/08/10 10:26:55;;;;;;;1.83;1.30;;;23.30;99.90;;;;;;5119184;28;20448;-81
2021/08/10 10:29:25;;;;;;;2.00;1.20;;;23.30;99.90;;;;;;5114288;28;20536;-81
2021/08/10 10:31:53;;;;;;;1.40;1.10;;;23.30;99.90;;;;;;5117344;28;20863;-81
2021/08/10 10:34:22;;;;;;;2.97;1.30;;;23.30;99.90;;;;;;5117064;28;21206;-80
2021/08/10 10:36:52;;;;;;;1.93;1.20;;;23.40;99.90;;;;;;5118904;28;20433;-80
2021/08/10 10:39:26;;;;;;;1.80;1.20;;;23.40;99.90;;;;;;5116842;28;20525;-81
2021/08/10 10:41:56;;;;;;;2.40;1.37;;;23.40;99.90;;;;;;5118997;28;20469;-81
2021/08/10 10:44:42;;;;;;;1.40;1.30;;;23.40;99.90;;;;;;5117348;28;20848;-80
2021/08/10 10:47:37;;;;;;;1.57;1.10;;;23.50;99.90;;;;;;5118437;28;20666;-80
2021/08/10 10:50:19;;;;;;;2.23;1.20;;;23.50;99.90;;;;;;5098613;28;20496;-80
2021/08/10 10:53:03;;;;;;;2.50;1.60;;;23.60;99.90;;;;;;5116028;28;20683;-81
2021/08/10 10:55:36;;;;;;;3.00;1.40;;;23.60;99.90;;;;;;5117641;28;20433;-81
2021/08/10 10:58:24;;;;;;;1.30;1.20;;;23.70;99.90;;;;;;5118725;28;20858;-80
2021/08/10 11:01:18;;;;;;;1.33;1.23;;;23.70;99.90;;;;;;5118753;28;20444;-81
2021/08/10 11:04:09;;;;;;;1.70;1.23;;;23.70;99.90;;;;;;5115330;28;20451;-79
2021/08/10 11:06:39;;;;;;;2.27;1.60;;;23.80;99.90;;;;;;5116355;27;20465;-82
2021/08/10 11:09:08;;;;;;;1.73;1.37;;;23.80;99.90;;;;;;5117239;28;21012;-80
2021/08/10 11:11:50;;;;;;;1.57;1.30;;;23.80;99.90;;;;;;5118176;28;20522;-81
2021/08/10 11:14:54;;;;;;;1.30;1.20;;;23.80;99.90;;;;;;5118589;28;20471;-80
2021/08/10 11:17:24;;;;;;;1.87;1.60;;;23.90;99.90;;;;;;5122199;27;20451;-81
2021/08/10 11:19:53;;;;;;;1.67;1.43;;;24.00;99.90;;;;;;5124423;27;20467;-80
2021/08/10 11:22:23;;;;;;;1.80;1.50;;;24.00;99.90;;;;;;5118599;28;20501;-81
2021/08/10 11:24:55;;;;;;;2.70;1.30;;;24.00;99.90;;;;;;5119898;28;20502;-80
2021/08/10 11:27:34;;;;;;;1.93;1.70;;;24.00;99.90;;;;;;5117950;28;20453;-81
2021/08/10 11:30:06;;;;;;;1.40;1.30;;;24.10;99.90;;;;;;5117471;28;20473;-81
2021/08/10 11:32:41;;;;;;;1.63;1.53;;;24.10;99.90;;;;;;5117606;28;20517;-81
2021/08/10 11:35:30;;;;;;;2.70;1.50;;;24.10;99.90;;;;;;5120406;28;20465;-80
2021/08/10 11:38:13;;;;;;;3.67;1.43;;;24.10;99.90;;;;;;5118290;28;20505;-81
2021/08/10 11:40:59;;;;;;;1.50;1.40;;;24.10;99.90;;;;;;5120154;28;20441;-80
2021/08/10 11:43:38;;;;;;;2.40;1.20;;;24.10;99.90;;;;;;5139697;27;20872;-80
2021/08/10 11:46:08;;;;;;;5.73;1.70;;;24.20;99.90;;;;;;5139426;27;20938;-80
2021/08/10 11:48:45;;;;;;;2.17;1.70;;;24.20;99.90;;;;;;5139184;27;20479;-81
2021/08/10 11:51:18;;;;;;;3.47;1.73;;;24.20;99.90;;;;;;5138462;27;21033;-81
2021/08/10 11:53:47;;;;;;;1.70;1.20;;;24.20;99.90;;;;;;5140759;27;20439;-80
2021/08/10 11:56:23;;;;;;;2.83;1.40;;;24.20;99.90;;;;;;5139453;27;20489;-81
2021/08/10 11:58:51;;;;;;;1.40;1.30;;;24.20;99.90;;;;;;5127250;27;20452;-81
2021/08/10 12:01:19;;;;;;;2.17;1.50;;;24.20;99.90;;;;;;5118023;28;20464;-81
2021/08/10 12:03:49;;;;;;;1.50;1.40;;;24.30;99.90;;;;;;5118087;28;20449;-80
2021/08/10 12:06:17;;;;;;;2.43;1.60;;;24.40;99.90;;;;;;5116005;28;20948;-81
2021/08/10 12:08:45;;;;;;;1.40;1.30;;;24.40;99.90;;;;;;5111053;28;20469;-81
2021/08/10 12:11:14;;;;;;;2.53;1.10;;;24.50;99.90;;;;;;5111544;28;20521;-80
2021/08/10 12:13:42;;;;;;;1.37;1.27;;;24.50;99.90;;;;;;5112272;28;20452;-81
2021/08/10 12:16:10;;;;;;;1.50;1.30;;;24.60;99.90;;;;;;5112962;28;20449;-81
2021/08/10 12:18:50;;;;;;;1.10;1.10;;;24.60;99.90;;;;;;5113432;28;20433;-80
2021/08/10 12:21:18;;;;;;;1.90;1.63;;;24.70;99.90;;;;;;5130908;28;20475;-80
2021/08/10 12:23:49;;;;;;;2.40;1.20;;;24.70;99.90;;;;;;5132585;28;20504;-80
2021/08/10 12:26:20;;;;;;;3.63;1.80;;;24.70;99.90;;;;;;5133800;27;20962;-80
2021/08/10 12:28:53;;;;;;;1.93;1.53;;;24.70;99.90;;;;;;5138013;27;20440;-80
2021/08/10 12:31:22;;;;;;;1.50;1.40;;;24.70;99.90;;;;;;5120422;27;20472;-81
2021/08/10 12:33:53;;;;;;;1.57;1.10;;;24.70;99.90;;;;;;5131763;27;20445;-81
2021/08/10 12:36:21;;;;;;;2.70;1.40;;;24.70;99.90;;;;;;5114753;28;21004;-81
2021/08/10 12:38:51;;;;;;;1.60;1.20;;;24.70;99.90;;;;;;5116717;28;20433;-81
2021/08/10 12:41:30;;;;;;;1.80;1.70;;;24.70;99.90;;;;;;5115203;28;20456;-81
2021/08/10 12:43:59;;;;;;;1.40;1.30;;;24.80;99.90;;;;;;5116004;28;20819;-81
2021/08/10 12:46:29;;;;;;;1.60;1.43;;;24.80;99.90;;;;;;5116080;28;20500;-81
2021/08/10 12:49:08;;;;;;;2.90;1.53;;;24.90;99.90;;;;;;5120174;27;20439;-81
2021/08/10 12:51:59;;;;;;;1.73;1.27;;;25.00;99.90;;;;;;5137562;27;20459;-81
2021/08/10 12:54:29;;;;;;;1.40;1.30;;;25.00;99.90;;;;;;5135948;27;20520;-81
2021/08/10 12:57:00;;;;;;;1.73;1.50;;;25.00;99.90;;;;;;5135925;27;20448;-81
2021/08/10 12:59:48;;;;;;;1.57;1.47;;;25.00;99.90;;;;;;5136857;27;20424;-81
2021/08/10 13:02:34;;;;;;;1.83;1.60;;;25.00;99.90;;;;;;5137448;27;20466;-81
2021/08/10 13:05:05;;;;;;;3.20;2.07;;;25.10;99.90;;;;;;5136158;27;20534;-81
2021/08/10 13:07:34;;;;;;;1.77;1.20;;;25.10;99.90;;;;;;5141896;27;20840;-82